sensor_id;sensor_type;location;lat;lon;timestamp;temperature;humidity
60039;DHT22;45916;52.734;6.544;2023-01-31T00:01:29;2.70;99.90
60039;DHT22;45916;52.734;6.544;2023-01-31T00:04:00;2.70;99.90
60039;DHT22;45916;52.734;6.544;2023-01-31T00:06:32;2.70;99.90
60039;DHT22;45916;52.734;6.544;2023-01-31T00:08:59;2.70;99.90
60039;DHT22;45916;52.734;6.544;2023-01-31T00:11:26;2.70;99.90
60039;DHT22;45916;52.734;6.544;2023-01-31T00:13:53;2.70;99.90
60039;DHT22;45916;52.734;6.544;2023-01-31T00:16:19;2.80;99.90
60039;DHT22;45916;52.734;6.544;2023-01-31T00:18:46;2.90;99.90
60039;DHT22;45916;52.734;6.544;2023-01-31T00:21:14;2.80;99.90
60039;DHT22;45916;52.734;6.544;2023-01-31T00:23:42;2.80;99.90
60039;DHT22;45916;52.734;6.544;2023-01-31T00:26:09;2.70;99.90
60039;DHT22;45916;52.734;6.544;2023-01-31T00:28:35;2.80;99.90
60039;DHT22;45916;52.734;6.544;2023-01-31T00:31:00;2.80;99.90
60039;DHT22;45916;52.734;6.544;2023-01-31T00:33:26;2.70;99.90
60039;DHT22;45916;52.734;6.544;2023-01-31T00:35:51;2.60;99.90
60039;DHT22;45916;52.734;6.544;2023-01-31T00:38:17;2.60;99.90
60039;DHT22;45916;52.734;6.544;2023-01-31T00:40:51;2.60;99.90
60039;DHT22;45916;52.734;6.544;2023-01-31T00:43:16;2.60;99.90
60039;DHT22;45916;52.734;6.544;2023-01-31T00:45:42;2.60;99.90
60039;DHT22;45916;52.734;6.544;2023-01-31T00:48:08;2.50;99.90
60039;DHT22;45916;52.734;6.544;2023-01-31T00:50:33;2.50;99.90
60039;DHT22;45916;52.734;6.544;2023-01-31T00:52:59;2.50;99.90
60039;DHT22;45916;52.734;6.544;2023-01-31T00:55:25;2.50;99.90
60039;DHT22;45916;52.734;6.544;2023-01-31T00:57:51;2.60;99.90
60039;DHT22;45916;52.734;6.544;2023-01-31T01:00:17;2.60;99.90
60039;DHT22;45916;52.734;6.544;2023-01-31T01:02:42;2.60;99.90
60039;DHT22;45916;52.734;6.544;2023-01-31T01:05:08;2.60;99.90
60039;DHT22;45916;52.734;6.544;2023-01-31T01:07:34;2.60;99.90
60039;DHT22;45916;52.734;6.544;2023-01-31T01:10:00;2.60;99.90
60039;DHT22;45916;52.734;6.544;2023-01-31T01:12:25;2.70;99.90
60039;DHT22;45916;52.734;6.544;2023-01-31T01:14:51;2.70;99.90
60039;DHT22;45916;52.734;6.544;2023-01-31T01:17:17;2.60;99.90
60039;DHT22;45916;52.734;6.544;2023-01-31T01:19:42;2.60;99.90
60039;DHT22;45916;52.734;6.544;2023-01-31T01:22:08;2.50;99.90
60039;DHT22;45916;52.734;6.544;2023-01-31T01:24:34;2.50;99.90
60039;DHT22;45916;52.734;6.544;2023-01-31T01:27:00;2.40;99.90
60039;DHT22;45916;52.734;6.544;2023-01-31T01:29:25;2.30;99.90
60039;DHT22;45916;52.734;6.544;2023-01-31T01:31:51;2.40;99.90
60039;DHT22;45916;52.734;6.544;2023-01-31T01:34:17;2.40;99.90
60039;DHT22;45916;52.734;6.544;2023-01-31T01:36:43;2.40;99.90
60039;DHT22;45916;52.734;6.544;2023-01-31T01:39:10;2.40;99.90
60039;DHT22;45916;52.734;6.544;2023-01-31T01:41:37;2.40;99.90
60039;DHT22;45916;52.734;6.544;2023-01-31T01:47:19;2.60;99.90
60039;DHT22;45916;52.734;6.544;2023-01-31T01:49:48;2.60;99.90
60039;DHT22;45916;52.734;6.544;2023-01-31T01:52:15;2.60;99.90
60039;DHT22;45916;52.734;6.544;2023-01-31T01:54:57;2.60;99.90
60039;DHT22;45916;52.734;6.544;2023-01-31T01:57:32;2.60;99.90
60039;DHT22;45916;52.734;6.544;2023-01-31T02:00:14;2.50;99.90
60039;DHT22;45916;52.734;6.544;2023-01-31T02:02:43;2.50;99.90
60039;DHT22;45916;52.734;6.544;2023-01-31T02:05:12;2.50;99.90
60039;DHT22;45916;52.734;6.544;2023-01-31T02:07:39;2.50;99.90
60039;DHT22;45916;52.734;6.544;2023-01-31T02:10:13;2.40;99.90
60039;DHT22;45916;52.734;6.544;2023-01-31T02:12:40;2.30;99.90
60039;DHT22;45916;52.734;6.544;2023-01-31T02:15:07;2.30;99.90
60039;DHT22;45916;52.734;6.544;2023-01-31T02:17:32;2.20;99.90
60039;DHT22;45916;52.734;6.544;2023-01-31T02:34:06;2.10;99.90
60039;DHT22;45916;52.734;6.544;2023-01-31T02:39:42;2.30;99.90
60039;DHT22;45916;52.734;6.544;2023-01-31T02:42:28;2.40;99.90
60039;DHT22;45916;52.734;6.544;2023-01-31T02:45:17;2.60;99.90
60039;DHT22;45916;52.734;6.544;2023-01-31T02:50:44;2.80;99.90
60039;DHT22;45916;52.734;6.544;2023-01-31T02:53:30;2.80;99.90
60039;DHT22;45916;52.734;6.544;2023-01-31T02:56:10;2.80;99.90
60039;DHT22;45916;52.734;6.544;2023-01-31T02:58:49;2.90;99.90
60039;DHT22;45916;52.734;6.544;2023-01-31T03:01:21;2.90;99.90
60039;DHT22;45916;52.734;6.544;2023-01-31T03:03:48;3.00;99.90
60039;DHT22;45916;52.734;6.544;2023-01-31T03:08:52;3.10;99.90
60039;DHT22;45916;52.734;6.544;2023-01-31T03:11:21;3.10;99.90
60039;DHT22;45916;52.734;6.544;2023-01-31T03:14:06;3.20;99.90
60039;DHT22;45916;52.734;6.544;2023-01-31T03:16:53;3.20;99.90
60039;DHT22;45916;52.734;6.544;2023-01-31T03:22:33;3.40;99.90
60039;DHT22;45916;52.734;6.544;2023-01-31T03:25:00;3.50;99.90
60039;DHT22;45916;52.734;6.544;2023-01-31T03:27:27;3.50;99.90
60039;DHT22;45916;52.734;6.544;2023-01-31T03:30:01;3.60;99.90
60039;DHT22;45916;52.734;6.544;2023-01-31T03:32:32;3.70;99.90
60039;DHT22;45916;52.734;6.544;2023-01-31T03:34:59;3.70;99.90
60039;DHT22;45916;52.734;6.544;2023-01-31T03:37:30;3.80;99.90
60039;DHT22;45916;52.734;6.544;2023-01-31T03:40:25;3.80;99.90
60039;DHT22;45916;52.734;6.544;2023-01-31T03:45:48;3.80;99.90
60039;DHT22;45916;52.734;6.544;2023-01-31T03:48:17;3.80;99.90
60039;DHT22;45916;52.734;6.544;2023-01-31T03:50:50;3.90;99.90
60039;DHT22;45916;52.734;6.544;2023-01-31T03:56:03;3.90;99.90
60039;DHT22;45916;52.734;6.544;2023-01-31T03:58:37;3.90;99.90
60039;DHT22;45916;52.734;6.544;2023-01-31T04:01:06;3.90;99.90
60039;DHT22;45916;52.734;6.544;2023-01-31T04:03:43;3.90;99.90
60039;DHT22;45916;52.734;6.544;2023-01-31T04:06:10;4.00;99.90
60039;DHT22;45916;52.734;6.544;2023-01-31T04:08:36;4.00;99.90
60039;DHT22;45916;52.734;6.544;2023-01-31T04:11:08;4.00;99.90
60039;DHT22;45916;52.734;6.544;2023-01-31T04:13:34;4.10;99.90
60039;DHT22;45916;52.734;6.544;2023-01-31T04:16:00;4.10;99.90
60039;DHT22;45916;52.734;6.544;2023-01-31T04:18:26;4.20;99.90
60039;DHT22;45916;52.734;6.544;2023-01-31T04:20:52;4.20;99.90
60039;DHT22;45916;52.734;6.544;2023-01-31T04:23:17;4.20;99.90
60039;DHT22;45916;52.734;6.544;2023-01-31T04:25:44;4.30;99.90
60039;DHT22;45916;52.734;6.544;2023-01-31T04:28:09;4.30;99.90
60039;DHT22;45916;52.734;6.544;2023-01-31T04:30:35;4.30;99.90
60039;DHT22;45916;52.734;6.544;2023-01-31T04:33:01;4.40;99.90
60039;DHT22;45916;52.734;6.544;2023-01-31T04:35:27;4.40;99.90
60039;DHT22;45916;52.734;6.544;2023-01-31T04:37:52;4.50;99.90
60039;DHT22;45916;52.734;6.544;2023-01-31T04:40:18;4.60;99.90
60039;DHT22;45916;52.734;6.544;2023-01-31T04:42:44;4.60;99.90
60039;DHT22;45916;52.734;6.544;2023-01-31T04:45:10;4.60;99.90
60039;DHT22;45916;52.734;6.544;2023-01-31T04:47:35;4.70;99.90
60039;DHT22;45916;52.734;6.544;2023-01-31T04:50:01;4.90;99.90
60039;DHT22;45916;52.734;6.544;2023-01-31T04:52:27;4.80;99.90
60039;DHT22;45916;52.734;6.544;2023-01-31T04:54:52;4.80;99.90
60039;DHT22;45916;52.734;6.544;2023-01-31T04:57:18;4.80;99.90
60039;DHT22;45916;52.734;6.544;2023-01-31T04:59:44;4.90;99.90
60039;DHT22;45916;52.734;6.544;2023-01-31T05:02:09;5.00;99.90
60039;DHT22;45916;52.734;6.544;2023-01-31T05:04:35;5.00;99.90
60039;DHT22;45916;52.734;6.544;2023-01-31T05:07:01;5.00;99.90
60039;DHT22;45916;52.734;6.544;2023-01-31T05:09:26;5.00;99.90
60039;DHT22;45916;52.734;6.544;2023-01-31T05:11:52;5.00;99.90
60039;DHT22;45916;52.734;6.544;2023-01-31T05:14:18;5.00;99.90
60039;DHT22;45916;52.734;6.544;2023-01-31T05:16:45;5.00;99.90
60039;DHT22;45916;52.734;6.544;2023-01-31T05:19:16;5.10;99.90
60039;DHT22;45916;52.734;6.544;2023-01-31T05:21:42;5.10;99.90
60039;DHT22;45916;52.734;6.544;2023-01-31T05:24:30;5.10;99.90
60039;DHT22;45916;52.734;6.544;2023-01-31T05:26:57;5.10;99.90
60039;DHT22;45916;52.734;6.544;2023-01-31T05:29:28;5.10;99.90
60039;DHT22;45916;52.734;6.544;2023-01-31T05:31:55;5.00;99.90
60039;DHT22;45916;52.734;6.544;2023-01-31T05:34:22;5.00;99.90
60039;DHT22;45916;52.734;6.544;2023-01-31T05:36:50;4.90;99.90
60039;DHT22;45916;52.734;6.544;2023-01-31T05:39:16;4.90;99.90
60039;DHT22;45916;52.734;6.544;2023-01-31T05:41:42;5.00;99.90
60039;DHT22;45916;52.734;6.544;2023-01-31T05:44:08;5.00;99.90
60039;DHT22;45916;52.734;6.544;2023-01-31T05:46:34;5.00;99.90
60039;DHT22;45916;52.734;6.544;2023-01-31T05:48:59;4.90;99.90
60039;DHT22;45916;52.734;6.544;2023-01-31T05:51:25;4.90;99.90
60039;DHT22;45916;52.734;6.544;2023-01-31T05:53:51;5.00;99.90
60039;DHT22;45916;52.734;6.544;2023-01-31T05:56:16;5.00;99.90
60039;DHT22;45916;52.734;6.544;2023-01-31T05:58:42;5.00;99.90
60039;DHT22;45916;52.734;6.544;2023-01-31T06:01:08;5.00;99.90
60039;DHT22;45916;52.734;6.544;2023-01-31T06:03:33;5.10;99.90
60039;DHT22;45916;52.734;6.544;2023-01-31T06:06:01;5.10;99.90
60039;DHT22;45916;52.734;6.544;2023-01-31T06:08:28;5.10;99.90
60039;DHT22;45916;52.734;6.544;2023-01-31T06:10:53;5.20;99.90
60039;DHT22;45916;52.734;6.544;2023-01-31T06:13:19;5.30;99.90
60039;DHT22;45916;52.734;6.544;2023-01-31T06:15:45;5.30;99.90
60039;DHT22;45916;52.734;6.544;2023-01-31T06:18:11;5.30;99.90
60039;DHT22;45916;52.734;6.544;2023-01-31T06:20:40;5.30;99.90
60039;DHT22;45916;52.734;6.544;2023-01-31T06:23:05;5.30;99.90
60039;DHT22;45916;52.734;6.544;2023-01-31T06:25:31;5.30;99.90
60039;DHT22;45916;52.734;6.544;2023-01-31T06:27:57;5.30;99.90
60039;DHT22;45916;52.734;6.544;2023-01-31T06:30:22;5.40;99.90
60039;DHT22;45916;52.734;6.544;2023-01-31T06:32:48;5.40;99.90
60039;DHT22;45916;52.734;6.544;2023-01-31T06:35:14;5.40;99.90
60039;DHT22;45916;52.734;6.544;2023-01-31T06:37:40;5.40;99.90
60039;DHT22;45916;52.734;6.544;2023-01-31T06:40:05;5.50;99.90
60039;DHT22;45916;52.734;6.544;2023-01-31T06:42:31;5.50;99.90
60039;DHT22;45916;52.734;6.544;2023-01-31T06:44:57;5.50;99.90
60039;DHT22;45916;52.734;6.544;2023-01-31T06:47:22;5.50;99.90
60039;DHT22;45916;52.734;6.544;2023-01-31T06:49:48;5.50;99.90
60039;DHT22;45916;52.734;6.544;2023-01-31T06:52:14;5.40;99.90
60039;DHT22;45916;52.734;6.544;2023-01-31T06:54:41;5.50;99.90
60039;DHT22;45916;52.734;6.544;2023-01-31T06:57:06;5.50;99.90
60039;DHT22;45916;52.734;6.544;2023-01-31T06:59:32;5.50;99.90
60039;DHT22;45916;52.734;6.544;2023-01-31T07:01:58;5.60;99.90
60039;DHT22;45916;52.734;6.544;2023-01-31T07:04:24;5.60;99.90
60039;DHT22;45916;52.734;6.544;2023-01-31T07:06:49;5.60;99.90
60039;DHT22;45916;52.734;6.544;2023-01-31T07:09:15;5.60;99.90
60039;DHT22;45916;52.734;6.544;2023-01-31T07:11:40;5.70;99.90
60039;DHT22;45916;52.734;6.544;2023-01-31T07:14:06;5.70;99.90
60039;DHT22;45916;52.734;6.544;2023-01-31T07:16:32;5.60;99.90
60039;DHT22;45916;52.734;6.544;2023-01-31T07:18:58;5.70;99.90
60039;DHT22;45916;52.734;6.544;2023-01-31T07:21:23;5.80;99.90
60039;DHT22;45916;52.734;6.544;2023-01-31T07:23:51;5.80;99.90
60039;DHT22;45916;52.734;6.544;2023-01-31T07:26:16;5.80;99.90
60039;DHT22;45916;52.734;6.544;2023-01-31T07:28:42;5.80;99.90
60039;DHT22;45916;52.734;6.544;2023-01-31T07:31:11;5.70;99.90
60039;DHT22;45916;52.734;6.544;2023-01-31T07:33:38;5.70;99.90
60039;DHT22;45916;52.734;6.544;2023-01-31T07:36:04;5.80;99.90
60039;DHT22;45916;52.734;6.544;2023-01-31T07:38:31;5.80;99.90
60039;DHT22;45916;52.734;6.544;2023-01-31T07:41:01;5.80;99.90
60039;DHT22;45916;52.734;6.544;2023-01-31T07:43:27;5.90;99.90
60039;DHT22;45916;52.734;6.544;2023-01-31T07:45:53;5.90;99.90
60039;DHT22;45916;52.734;6.544;2023-01-31T07:48:19;5.90;99.90
60039;DHT22;45916;52.734;6.544;2023-01-31T07:50:52;5.90;99.90
60039;DHT22;45916;52.734;6.544;2023-01-31T07:53:19;5.90;99.90
60039;DHT22;45916;52.734;6.544;2023-01-31T07:55:47;5.90;99.90
60039;DHT22;45916;52.734;6.544;2023-01-31T07:58:14;5.90;99.90
60039;DHT22;45916;52.734;6.544;2023-01-31T08:00:41;6.00;99.90
60039;DHT22;45916;52.734;6.544;2023-01-31T08:03:28;5.90;99.90
60039;DHT22;45916;52.734;6.544;2023-01-31T08:06:02;6.00;99.90
60039;DHT22;45916;52.734;6.544;2023-01-31T08:08:28;6.00;99.90
60039;DHT22;45916;52.734;6.544;2023-01-31T08:10:54;6.00;99.90
60039;DHT22;45916;52.734;6.544;2023-01-31T08:13:20;6.00;99.90
60039;DHT22;45916;52.734;6.544;2023-01-31T08:15:46;6.00;99.90
60039;DHT22;45916;52.734;6.544;2023-01-31T08:18:12;6.00;99.90
60039;DHT22;45916;52.734;6.544;2023-01-31T08:20:38;6.10;99.90
60039;DHT22;45916;52.734;6.544;2023-01-31T08:23:03;6.10;99.90
60039;DHT22;45916;52.734;6.544;2023-01-31T08:25:29;6.00;99.90
60039;DHT22;45916;52.734;6.544;2023-01-31T08:27:59;6.10;99.90
60039;DHT22;45916;52.734;6.544;2023-01-31T08:30:25;6.00;99.90
60039;DHT22;45916;52.734;6.544;2023-01-31T08:32:51;6.00;99.90
60039;DHT22;45916;52.734;6.544;2023-01-31T08:35:17;6.00;99.90
60039;DHT22;45916;52.734;6.544;2023-01-31T08:37:43;6.10;99.90
60039;DHT22;45916;52.734;6.544;2023-01-31T08:40:09;6.10;99.90
60039;DHT22;45916;52.734;6.544;2023-01-31T08:42:35;6.10;99.90
60039;DHT22;45916;52.734;6.544;2023-01-31T08:45:00;6.10;99.90
60039;DHT22;45916;52.734;6.544;2023-01-31T08:47:26;6.10;99.90
60039;DHT22;45916;52.734;6.544;2023-01-31T08:49:52;6.10;99.90
60039;DHT22;45916;52.734;6.544;2023-01-31T08:52:17;6.20;99.90
60039;DHT22;45916;52.734;6.544;2023-01-31T08:54:43;6.20;99.90
60039;DHT22;45916;52.734;6.544;2023-01-31T08:57:09;6.20;99.90
60039;DHT22;45916;52.734;6.544;2023-01-31T08:59:34;6.30;99.90
60039;DHT22;45916;52.734;6.544;2023-01-31T09:02:01;6.30;99.90
60039;DHT22;45916;52.734;6.544;2023-01-31T09:04:26;6.30;99.90
60039;DHT22;45916;52.734;6.544;2023-01-31T09:06:52;6.30;99.90
60039;DHT22;45916;52.734;6.544;2023-01-31T09:09:19;6.30;99.90
60039;DHT22;45916;52.734;6.544;2023-01-31T09:11:45;6.30;99.90
60039;DHT22;45916;52.734;6.544;2023-01-31T09:14:10;6.40;99.90
60039;DHT22;45916;52.734;6.544;2023-01-31T09:16:37;6.40;99.90
60039;DHT22;45916;52.734;6.544;2023-01-31T09:19:02;6.40;99.90
60039;DHT22;45916;52.734;6.544;2023-01-31T09:21:28;6.50;99.90
60039;DHT22;45916;52.734;6.544;2023-01-31T09:23:59;6.60;99.90
60039;DHT22;45916;52.734;6.544;2023-01-31T09:26:27;6.60;99.90
60039;DHT22;45916;52.734;6.544;2023-01-31T09:28:53;6.70;99.90
60039;DHT22;45916;52.734;6.544;2023-01-31T09:31:19;6.70;99.90
60039;DHT22;45916;52.734;6.544;2023-01-31T09:33:45;6.80;99.90
60039;DHT22;45916;52.734;6.544;2023-01-31T09:36:14;6.90;99.90
60039;DHT22;45916;52.734;6.544;2023-01-31T09:38:40;7.00;99.90
60039;DHT22;45916;52.734;6.544;2023-01-31T09:41:25;6.90;99.90
60039;DHT22;45916;52.734;6.544;2023-01-31T09:44:00;7.00;99.90
60039;DHT22;45916;52.734;6.544;2023-01-31T09:46:31;7.00;99.90
60039;DHT22;45916;52.734;6.544;2023-01-31T09:49:00;7.00;99.90
60039;DHT22;45916;52.734;6.544;2023-01-31T09:51:27;7.20;99.90
60039;DHT22;45916;52.734;6.544;2023-01-31T09:53:54;7.20;99.90
60039;DHT22;45916;52.734;6.544;2023-01-31T09:56:41;7.20;99.90
60039;DHT22;45916;52.734;6.544;2023-01-31T10:02:36;7.30;99.90
60039;DHT22;45916;52.734;6.544;2023-01-31T10:05:13;7.30;99.90
60039;DHT22;45916;52.734;6.544;2023-01-31T10:07:54;7.30;99.90
60039;DHT22;45916;52.734;6.544;2023-01-31T10:10:37;7.30;99.90
60039;DHT22;45916;52.734;6.544;2023-01-31T10:13:16;7.30;99.90
60039;DHT22;45916;52.734;6.544;2023-01-31T10:15:55;7.20;99.90
60039;DHT22;45916;52.734;6.544;2023-01-31T10:18:23;7.30;99.90
60039;DHT22;45916;52.734;6.544;2023-01-31T10:20:55;7.30;99.90
60039;DHT22;45916;52.734;6.544;2023-01-31T10:23:30;7.40;99.90
60039;DHT22;45916;52.734;6.544;2023-01-31T10:26:05;7.40;99.90
60039;DHT22;45916;52.734;6.544;2023-01-31T10:28:48;7.40;99.90
60039;DHT22;45916;52.734;6.544;2023-01-31T10:34:31;7.40;99.90
60039;DHT22;45916;52.734;6.544;2023-01-31T10:37:09;7.30;99.90
60039;DHT22;45916;52.734;6.544;2023-01-31T10:39:42;7.30;99.90
60039;DHT22;45916;52.734;6.544;2023-01-31T10:42:29;7.30;99.90
60039;DHT22;45916;52.734;6.544;2023-01-31T10:45:16;7.30;99.90
60039;DHT22;45916;52.734;6.544;2023-01-31T10:47:56;7.20;99.90
60039;DHT22;45916;52.734;6.544;2023-01-31T10:53:40;7.20;99.90
60039;DHT22;45916;52.734;6.544;2023-01-31T10:56:27;7.20;99.90
60039;DHT22;45916;52.734;6.544;2023-01-31T10:58:55;7.20;99.90
60039;DHT22;45916;52.734;6.544;2023-01-31T11:01:22;7.30;99.90
60039;DHT22;45916;52.734;6.544;2023-01-31T11:03:53;7.30;99.90
60039;DHT22;45916;52.734;6.544;2023-01-31T11:06:19;7.20;99.90
60039;DHT22;45916;52.734;6.544;2023-01-31T11:11:18;7.10;99.90
60039;DHT22;45916;52.734;6.544;2023-01-31T11:14:04;7.10;99.90
60039;DHT22;45916;52.734;6.544;2023-01-31T11:16:34;7.10;99.90
60039;DHT22;45916;52.734;6.544;2023-01-31T11:19:03;7.10;99.90
60039;DHT22;45916;52.734;6.544;2023-01-31T11:21:37;7.10;99.90
60039;DHT22;45916;52.734;6.544;2023-01-31T11:24:15;7.20;99.90
60039;DHT22;45916;52.734;6.544;2023-01-31T11:29:21;7.20;99.90
60039;DHT22;45916;52.734;6.544;2023-01-31T11:31:49;7.20;99.90
60039;DHT22;45916;52.734;6.544;2023-01-31T11:36:46;7.30;99.90
60039;DHT22;45916;52.734;6.544;2023-01-31T11:39:33;7.30;99.90
60039;DHT22;45916;52.734;6.544;2023-01-31T11:42:15;7.40;99.90
60039;DHT22;45916;52.734;6.544;2023-01-31T11:47:27;7.40;99.90
60039;DHT22;45916;52.734;6.544;2023-01-31T11:49:53;7.50;99.90
60039;DHT22;45916;52.734;6.544;2023-01-31T11:52:21;7.50;99.90
60039;DHT22;45916;52.734;6.544;2023-01-31T11:54:55;7.60;99.90
60039;DHT22;45916;52.734;6.544;2023-01-31T11:57:36;7.60;99.90
60039;DHT22;45916;52.734;6.544;2023-01-31T12:00:20;7.60;99.90
60039;DHT22;45916;52.734;6.544;2023-01-31T12:02:50;7.60;99.90
60039;DHT22;45916;52.734;6.544;2023-01-31T12:05:18;7.70;99.90
60039;DHT22;45916;52.734;6.544;2023-01-31T12:07:49;7.60;99.90
60039;DHT22;45916;52.734;6.544;2023-01-31T12:12:55;7.70;99.90
60039;DHT22;45916;52.734;6.544;2023-01-31T12:15:22;7.90;99.90
60039;DHT22;45916;52.734;6.544;2023-01-31T12:17:49;7.90;99.90
60039;DHT22;45916;52.734;6.544;2023-01-31T12:22:59;8.00;99.90
60039;DHT22;45916;52.734;6.544;2023-01-31T12:44:59;8.70;99.90
60039;DHT22;45916;52.734;6.544;2023-01-31T12:47:47;8.60;99.90
60039;DHT22;45916;52.734;6.544;2023-01-31T12:50:33;8.60;99.90
60039;DHT22;45916;52.734;6.544;2023-01-31T12:59:16;8.60;99.90
60039;DHT22;45916;52.734;6.544;2023-01-31T13:05:00;8.80;99.90
60039;DHT22;45916;52.734;6.544;2023-01-31T13:10:32;9.00;99.90
60039;DHT22;45916;52.734;6.544;2023-01-31T13:13:00;9.20;99.90
60039;DHT22;45916;52.734;6.544;2023-01-31T13:15:42;9.40;99.90
60039;DHT22;45916;52.734;6.544;2023-01-31T13:18:10;9.50;99.90
60039;DHT22;45916;52.734;6.544;2023-01-31T13:20:59;9.50;99.90
60039;DHT22;45916;52.734;6.544;2023-01-31T13:23:39;9.60;99.90
60039;DHT22;45916;52.734;6.544;2023-01-31T13:26:12;9.60;99.90
60039;DHT22;45916;52.734;6.544;2023-01-31T13:31:48;9.40;99.90
60039;DHT22;45916;52.734;6.544;2023-01-31T13:34:21;9.50;99.90
60039;DHT22;45916;52.734;6.544;2023-01-31T13:36:49;9.50;99.90
60039;DHT22;45916;52.734;6.544;2023-01-31T13:39:32;9.50;99.90
60039;DHT22;45916;52.734;6.544;2023-01-31T13:42:00;9.50;99.90
60039;DHT22;45916;52.734;6.544;2023-01-31T13:44:25;9.40;99.90
60039;DHT22;45916;52.734;6.544;2023-01-31T13:49:34;9.20;99.90
60039;DHT22;45916;52.734;6.544;2023-01-31T13:52:04;9.10;99.90
60039;DHT22;45916;52.734;6.544;2023-01-31T13:54:46;9.10;99.90
60039;DHT22;45916;52.734;6.544;2023-01-31T13:57:28;9.00;99.90
60039;DHT22;45916;52.734;6.544;2023-01-31T14:00:07;9.00;99.90
60039;DHT22;45916;52.734;6.544;2023-01-31T14:02:35;8.90;99.90
60039;DHT22;45916;52.734;6.544;2023-01-31T14:10:54;8.80;99.90
60039;DHT22;45916;52.734;6.544;2023-01-31T14:13:37;8.80;99.90
60039;DHT22;45916;52.734;6.544;2023-01-31T14:16:31;8.70;99.90
60039;DHT22;45916;52.734;6.544;2023-01-31T14:18:49;8.80;99.90
60039;DHT22;45916;52.734;6.544;2023-01-31T14:24:02;8.80;99.90
60039;DHT22;45916;52.734;6.544;2023-01-31T14:31:41;8.90;99.90
60039;DHT22;45916;52.734;6.544;2023-01-31T14:34:34;8.90;99.90
60039;DHT22;45916;52.734;6.544;2023-01-31T14:39:49;8.90;99.90
60039;DHT22;45916;52.734;6.544;2023-01-31T14:58:29;8.80;99.90
60039;DHT22;45916;52.734;6.544;2023-01-31T15:00:57;8.80;99.90
60039;DHT22;45916;52.734;6.544;2023-01-31T15:03:29;8.70;99.90
60039;DHT22;45916;52.734;6.544;2023-01-31T15:08:44;8.60;99.90
60039;DHT22;45916;52.734;6.544;2023-01-31T15:11:16;8.60;99.90
60039;DHT22;45916;52.734;6.544;2023-01-31T15:13:58;8.70;99.90
60039;DHT22;45916;52.734;6.544;2023-01-31T15:16:30;8.60;99.90
60039;DHT22;45916;52.734;6.544;2023-01-31T15:19:16;8.60;99.90
60039;DHT22;45916;52.734;6.544;2023-01-31T15:21:47;8.60;99.90
60039;DHT22;45916;52.734;6.544;2023-01-31T15:24:31;8.60;99.90
60039;DHT22;45916;52.734;6.544;2023-01-31T15:27:00;8.60;99.90
60039;DHT22;45916;52.734;6.544;2023-01-31T15:29:32;8.60;99.90
60039;DHT22;45916;52.734;6.544;2023-01-31T15:32:18;8.50;99.90
60039;DHT22;45916;52.734;6.544;2023-01-31T15:35:35;8.40;99.90
60039;DHT22;45916;52.734;6.544;2023-01-31T15:37:35;8.30;99.90
60039;DHT22;45916;52.734;6.544;2023-01-31T15:42:32;7.90;99.90
60039;DHT22;45916;52.734;6.544;2023-01-31T15:47:41;8.10;99.90
60039;DHT22;45916;52.734;6.544;2023-01-31T15:50:18;8.00;99.90
60039;DHT22;45916;52.734;6.544;2023-01-31T15:52:45;8.00;99.90
60039;DHT22;45916;52.734;6.544;2023-01-31T15:55:15;8.00;99.90
60039;DHT22;45916;52.734;6.544;2023-01-31T15:57:46;7.90;99.90
60039;DHT22;45916;52.734;6.544;2023-01-31T16:02:48;7.80;99.90
60039;DHT22;45916;52.734;6.544;2023-01-31T16:05:22;7.60;99.90
60039;DHT22;45916;52.734;6.544;2023-01-31T16:07:48;7.50;99.90
60039;DHT22;45916;52.734;6.544;2023-01-31T16:10:15;7.40;99.90
60039;DHT22;45916;52.734;6.544;2023-01-31T16:12:44;7.30;99.90
60039;DHT22;45916;52.734;6.544;2023-01-31T16:15:16;7.20;99.90
60039;DHT22;45916;52.734;6.544;2023-01-31T16:17:43;7.10;99.90
60039;DHT22;45916;52.734;6.544;2023-01-31T16:23:00;7.00;99.90
60039;DHT22;45916;52.734;6.544;2023-01-31T16:25:26;7.00;99.90
60039;DHT22;45916;52.734;6.544;2023-01-31T16:27:53;6.90;99.90
60039;DHT22;45916;52.734;6.544;2023-01-31T16:30:20;6.90;99.90
60039;DHT22;45916;52.734;6.544;2023-01-31T16:32:46;6.80;99.90
60039;DHT22;45916;52.734;6.544;2023-01-31T16:35:26;6.80;99.90
60039;DHT22;45916;52.734;6.544;2023-01-31T16:38:04;6.80;99.90
60039;DHT22;45916;52.734;6.544;2023-01-31T16:40:39;6.70;99.90
60039;DHT22;45916;52.734;6.544;2023-01-31T16:43:27;6.70;99.90
60039;DHT22;45916;52.734;6.544;2023-01-31T16:48:31;6.60;99.90
60039;DHT22;45916;52.734;6.544;2023-01-31T16:51:00;6.50;99.90
60039;DHT22;45916;52.734;6.544;2023-01-31T16:53:32;6.50;99.90
60039;DHT22;45916;52.734;6.544;2023-01-31T16:58:46;6.40;99.90
60039;DHT22;45916;52.734;6.544;2023-01-31T17:01:16;6.40;99.90
60039;DHT22;45916;52.734;6.544;2023-01-31T17:03:42;6.40;99.90
60039;DHT22;45916;52.734;6.544;2023-01-31T17:06:09;6.50;99.90
60039;DHT22;45916;52.734;6.544;2023-01-31T17:08:42;6.40;99.90
60039;DHT22;45916;52.734;6.544;2023-01-31T17:11:10;6.40;99.90
60039;DHT22;45916;52.734;6.544;2023-01-31T17:13:36;6.30;99.90
60039;DHT22;45916;52.734;6.544;2023-01-31T17:16:14;6.30;99.90
60039;DHT22;45916;52.734;6.544;2023-01-31T17:18:51;6.20;99.90
60039;DHT22;45916;52.734;6.544;2023-01-31T17:21:17;6.30;99.90
60039;DHT22;45916;52.734;6.544;2023-01-31T17:23:43;6.20;99.90
60039;DHT22;45916;52.734;6.544;2023-01-31T17:26:17;6.20;99.90
60039;DHT22;45916;52.734;6.544;2023-01-31T17:28:43;6.30;99.90
60039;DHT22;45916;52.734;6.544;2023-01-31T17:31:18;6.20;99.90
60039;DHT22;45916;52.734;6.544;2023-01-31T17:33:45;6.10;99.90
60039;DHT22;45916;52.734;6.544;2023-01-31T17:36:11;6.00;99.90
60039;DHT22;45916;52.734;6.544;2023-01-31T17:38:36;6.00;99.90
60039;DHT22;45916;52.734;6.544;2023-01-31T17:41:02;5.90;99.90
60039;DHT22;45916;52.734;6.544;2023-01-31T17:43:28;5.90;99.90
60039;DHT22;45916;52.734;6.544;2023-01-31T17:45:54;5.80;99.90
60039;DHT22;45916;52.734;6.544;2023-01-31T17:48:20;5.80;99.90
60039;DHT22;45916;52.734;6.544;2023-01-31T17:50:45;5.80;99.90
60039;DHT22;45916;52.734;6.544;2023-01-31T17:53:12;5.80;99.90
60039;DHT22;45916;52.734;6.544;2023-01-31T17:55:38;5.70;99.90
60039;DHT22;45916;52.734;6.544;2023-01-31T17:58:03;5.80;99.90
60039;DHT22;45916;52.734;6.544;2023-01-31T18:00:29;5.80;99.90
60039;DHT22;45916;52.734;6.544;2023-01-31T18:02:55;5.80;99.90
60039;DHT22;45916;52.734;6.544;2023-01-31T18:05:21;5.70;99.90
60039;DHT22;45916;52.734;6.544;2023-01-31T18:07:48;5.70;99.90
60039;DHT22;45916;52.734;6.544;2023-01-31T18:10:14;5.70;99.90
60039;DHT22;45916;52.734;6.544;2023-01-31T18:12:40;5.60;99.90
60039;DHT22;45916;52.734;6.544;2023-01-31T18:15:06;5.50;99.90
60039;DHT22;45916;52.734;6.544;2023-01-31T18:17:32;5.60;99.90
60039;DHT22;45916;52.734;6.544;2023-01-31T18:19:58;5.60;99.90
60039;DHT22;45916;52.734;6.544;2023-01-31T18:22:24;5.50;99.90
60039;DHT22;45916;52.734;6.544;2023-01-31T18:24:50;5.60;99.90
60039;DHT22;45916;52.734;6.544;2023-01-31T18:27:15;5.60;99.90
60039;DHT22;45916;52.734;6.544;2023-01-31T18:29:41;5.50;99.90